sensor_id;sensor_type;location;lat;lon;timestamp;P1;durP1;ratioP1;P2;durP2;ratioP2
17866;SDS011;9059;49.934;8.650;2023-04-06T00:00:34;3.73;;;2.03;;
17866;SDS011;9059;49.934;8.650;2023-04-06T00:01:36;4.57;;;1.90;;
17866;SDS011;9059;49.934;8.650;2023-04-06T00:02:39;4.30;;;1.70;;
17866;SDS011;9059;49.934;8.650;2023-04-06T00:03:40;5.57;;;1.70;;
17866;SDS011;9059;49.934;8.650;2023-04-06T00:04:44;4.00;;;1.80;;
17866;SDS011;9059;49.934;8.650;2023-04-06T00:05:46;6.10;;;1.73;;
17866;SDS011;9059;49.934;8.650;2023-04-06T00:06:49;4.13;;;1.93;;
17866;SDS011;9059;49.934;8.650;2023-04-06T00:07:51;3.60;;;1.90;;
17866;SDS011;9059;49.934;8.650;2023-04-06T00:08:55;2.27;;;1.30;;
17866;SDS011;9059;49.934;8.650;2023-04-06T00:09:57;6.20;;;1.97;;
17866;SDS011;9059;49.934;8.650;2023-04-06T00:11:00;6.50;;;1.93;;
17866;SDS011;9059;49.934;8.650;2023-04-06T00:12:03;3.53;;;1.83;;
17866;SDS011;9059;49.934;8.650;2023-04-06T00:13:06;5.80;;;1.70;;
17866;SDS011;9059;49.934;8.650;2023-04-06T00:14:08;6.70;;;1.50;;
17866;SDS011;9059;49.934;8.650;2023-04-06T00:15:11;4.07;;;1.70;;
17866;SDS011;9059;49.934;8.650;2023-04-06T00:16:13;3.00;;;1.63;;
17866;SDS011;9059;49.934;8.650;2023-04-06T00:17:16;6.50;;;1.90;;
17866;SDS011;9059;49.934;8.650;2023-04-06T00:18:18;6.87;;;1.97;;
17866;SDS011;9059;49.934;8.650;2023-04-06T00:19:21;4.33;;;1.77;;
17866;SDS011;9059;49.934;8.650;2023-04-06T00:20:23;3.80;;;1.87;;
17866;SDS011;9059;49.934;8.650;2023-04-06T00:21:25;3.00;;;1.80;;
17866;SDS011;9059;49.934;8.650;2023-04-06T00:22:27;4.27;;;2.07;;
17866;SDS011;9059;49.934;8.650;2023-04-06T00:23:31;4.67;;;2.20;;
17866;SDS011;9059;49.934;8.650;2023-04-06T00:24:32;4.37;;;1.90;;
17866;SDS011;9059;49.934;8.650;2023-04-06T00:25:35;3.50;;;1.60;;
17866;SDS011;9059;49.934;8.650;2023-04-06T00:26:37;4.90;;;2.17;;
17866;SDS011;9059;49.934;8.650;2023-04-06T00:27:41;7.07;;;1.93;;
17866;SDS011;9059;49.934;8.650;2023-04-06T00:28:43;4.73;;;2.03;;
17866;SDS011;9059;49.934;8.650;2023-04-06T00:29:46;4.20;;;1.67;;
17866;SDS011;9059;49.934;8.650;2023-04-06T00:30:48;4.60;;;1.90;;
17866;SDS011;9059;49.934;8.650;2023-04-06T00:31:51;4.43;;;1.80;;
17866;SDS011;9059;49.934;8.650;2023-04-06T00:32:53;4.43;;;2.00;;
17866;SDS011;9059;49.934;8.650;2023-04-06T00:33:57;8.37;;;2.07;;
17866;SDS011;9059;49.934;8.650;2023-04-06T00:34:59;4.87;;;1.90;;
17866;SDS011;9059;49.934;8.650;2023-04-06T00:36:02;4.77;;;2.07;;
17866;SDS011;9059;49.934;8.650;2023-04-06T00:37:04;6.17;;;1.90;;
17866;SDS011;9059;49.934;8.650;2023-04-06T00:38:07;4.77;;;1.50;;
17866;SDS011;9059;49.934;8.650;2023-04-06T00:39:09;4.40;;;2.10;;
17866;SDS011;9059;49.934;8.650;2023-04-06T00:40:12;4.63;;;1.90;;
17866;SDS011;9059;49.934;8.650;2023-04-06T00:41:14;4.40;;;2.03;;
17866;SDS011;9059;49.934;8.650;2023-04-06T00:42:17;6.83;;;2.00;;
17866;SDS011;9059;49.934;8.650;2023-04-06T00:43:27;3.07;;;1.67;;
17866;SDS011;9059;49.934;8.650;2023-04-06T00:44:30;2.73;;;1.80;;
17866;SDS011;9059;49.934;8.650;2023-04-06T00:45:33;7.20;;;2.13;;
17866;SDS011;9059;49.934;8.650;2023-04-06T00:46:37;3.10;;;1.60;;
17866;SDS011;9059;49.934;8.650;2023-04-06T00:47:39;4.43;;;1.90;;
17866;SDS011;9059;49.934;8.650;2023-04-06T00:48:42;8.00;;;1.63;;
17866;SDS011;9059;49.934;8.650;2023-04-06T00:49:43;3.07;;;1.67;;
17866;SDS011;9059;49.934;8.650;2023-04-06T00:50:46;3.57;;;1.80;;
17866;SDS011;9059;49.934;8.650;2023-04-06T00:51:48;3.17;;;1.80;;
17866;SDS011;9059;49.934;8.650;2023-04-06T00:52:51;4.67;;;1.90;;
17866;SDS011;9059;49.934;8.650;2023-04-06T00:53:53;5.53;;;2.00;;
17866;SDS011;9059;49.934;8.650;2023-04-06T00:54:56;5.57;;;1.77;;
17866;SDS011;9059;49.934;8.650;2023-04-06T00:55:57;5.33;;;1.70;;
17866;SDS011;9059;49.934;8.650;2023-04-06T00:57:00;3.83;;;1.83;;
17866;SDS011;9059;49.934;8.650;2023-04-06T00:58:02;4.47;;;2.20;;
17866;SDS011;9059;49.934;8.650;2023-04-06T00:59:08;4.30;;;1.90;;
17866;SDS011;9059;49.934;8.650;2023-04-06T01:00:11;5.47;;;1.77;;
17866;SDS011;9059;49.934;8.650;2023-04-06T01:01:14;6.40;;;1.97;;
17866;SDS011;9059;49.934;8.650;2023-04-06T01:02:16;4.50;;;1.90;;
17866;SDS011;9059;49.934;8.650;2023-04-06T01:03:19;4.73;;;1.80;;
17866;SDS011;9059;49.934;8.650;2023-04-06T01:04:21;4.33;;;1.80;;
17866;SDS011;9059;49.934;8.650;2023-04-06T01:05:24;4.10;;;1.67;;
17866;SDS011;9059;49.934;8.650;2023-04-06T01:06:26;6.30;;;2.30;;
17866;SDS011;9059;49.934;8.650;2023-04-06T01:07:29;5.53;;;2.27;;
17866;SDS011;9059;49.934;8.650;2023-04-06T01:08:31;3.70;;;1.83;;
17866;SDS011;9059;49.934;8.650;2023-04-06T01:09:34;5.40;;;1.80;;
17866;SDS011;9059;49.934;8.650;2023-04-06T01:10:36;3.70;;;1.73;;
17866;SDS011;9059;49.934;8.650;2023-04-06T01:11:39;3.53;;;1.70;;
17866;SDS011;9059;49.934;8.650;2023-04-06T01:12:41;6.70;;;1.90;;
17866;SDS011;9059;49.934;8.650;2023-04-06T01:13:43;3.77;;;1.83;;
17866;SDS011;9059;49.934;8.650;2023-04-06T01:14:47;5.00;;;2.37;;
17866;SDS011;9059;49.934;8.650;2023-04-06T01:15:50;5.10;;;1.90;;
17866;SDS011;9059;49.934;8.650;2023-04-06T01:16:52;3.73;;;1.63;;
17866;SDS011;9059;49.934;8.650;2023-04-06T01:17:55;3.67;;;2.00;;
17866;SDS011;9059;49.934;8.650;2023-04-06T01:18:56;4.87;;;2.07;;
17866;SDS011;9059;49.934;8.650;2023-04-06T01:19:59;5.17;;;2.03;;
17866;SDS011;9059;49.934;8.650;2023-04-06T01:21:01;7.03;;;1.87;;
17866;SDS011;9059;49.934;8.650;2023-04-06T01:22:04;6.57;;;1.90;;
17866;SDS011;9059;49.934;8.650;2023-04-06T01:23:07;3.83;;;1.83;;
17866;SDS011;9059;49.934;8.650;2023-04-06T01:24:10;3.40;;;1.60;;
17866;SDS011;9059;49.934;8.650;2023-04-06T01:25:12;4.67;;;1.73;;
17866;SDS011;9059;49.934;8.650;2023-04-06T01:26:15;3.47;;;2.10;;
17866;SDS011;9059;49.934;8.650;2023-04-06T01:27:17;3.10;;;1.47;;
17866;SDS011;9059;49.934;8.650;2023-04-06T01:28:20;4.87;;;1.90;;
17866;SDS011;9059;49.934;8.650;2023-04-06T01:29:22;5.87;;;1.93;;
17866;SDS011;9059;49.934;8.650;2023-04-06T01:30:25;3.53;;;1.70;;
17866;SDS011;9059;49.934;8.650;2023-04-06T01:31:27;5.90;;;1.90;;
17866;SDS011;9059;49.934;8.650;2023-04-06T01:32:30;4.87;;;1.73;;
17866;SDS011;9059;49.934;8.650;2023-04-06T01:33:32;2.57;;;1.67;;
17866;SDS011;9059;49.934;8.650;2023-04-06T01:34:35;5.13;;;1.73;;
17866;SDS011;9059;49.934;8.650;2023-04-06T01:35:37;5.73;;;1.60;;
17866;SDS011;9059;49.934;8.650;2023-04-06T01:36:40;8.60;;;1.80;;
17866;SDS011;9059;49.934;8.650;2023-04-06T01:37:42;5.40;;;2.23;;
17866;SDS011;9059;49.934;8.650;2023-04-06T01:38:47;2.57;;;1.73;;
17866;SDS011;9059;49.934;8.650;2023-04-06T01:39:49;5.03;;;1.60;;
17866;SDS011;9059;49.934;8.650;2023-04-06T01:40:52;3.07;;;1.67;;
17866;SDS011;9059;49.934;8.650;2023-04-06T01:41:54;3.97;;;1.73;;
17866;SDS011;9059;49.934;8.650;2023-04-06T01:42:57;3.87;;;1.67;;
17866;SDS011;9059;49.934;8.650;2023-04-06T01:43:59;5.50;;;1.83;;
17866;SDS011;9059;49.934;8.650;2023-04-06T01:45:02;4.67;;;1.70;;
17866;SDS011;9059;49.934;8.650;2023-04-06T01:46:04;6.03;;;2.07;;
17866;SDS011;9059;49.934;8.650;2023-04-06T01:47:07;3.63;;;1.80;;
17866;SDS011;9059;49.934;8.650;2023-04-06T01:48:09;7.60;;;1.67;;
17866;SDS011;9059;49.934;8.650;2023-04-06T01:49:12;6.47;;;1.60;;
17866;SDS011;9059;49.934;8.650;2023-04-06T01:50:14;5.83;;;2.17;;
17866;SDS011;9059;49.934;8.650;2023-04-06T01:51:17;3.60;;;1.53;;
17866;SDS011;9059;49.934;8.650;2023-04-06T01:52:19;2.47;;;1.43;;
17866;SDS011;9059;49.934;8.650;2023-04-06T01:53:22;6.03;;;2.27;;
17866;SDS011;9059;49.934;8.650;2023-04-06T01:54:25;3.57;;;1.77;;
17866;SDS011;9059;49.934;8.650;2023-04-06T01:55:28;6.27;;;1.93;;
17866;SDS011;9059;49.934;8.650;2023-04-06T01:56:30;5.53;;;1.83;;
17866;SDS011;9059;49.934;8.650;2023-04-06T01:57:33;3.50;;;1.67;;
17866;SDS011;9059;49.934;8.650;2023-04-06T01:58:36;3.03;;;1.63;;
17866;SDS011;9059;49.934;8.650;2023-04-06T01:59:39;4.07;;;2.00;;
17866;SDS011;9059;49.934;8.650;2023-04-06T02:00:41;4.00;;;2.07;;
17866;SDS011;9059;49.934;8.650;2023-04-06T02:01:44;6.90;;;1.60;;
17866;SDS011;9059;49.934;8.650;2023-04-06T02:02:46;3.37;;;1.53;;
17866;SDS011;9059;49.934;8.650;2023-04-06T02:03:49;2.80;;;1.43;;
17866;SDS011;9059;49.934;8.650;2023-04-06T02:04:51;2.93;;;1.43;;
17866;SDS011;9059;49.934;8.650;2023-04-06T02:05:54;5.90;;;1.90;;
17866;SDS011;9059;49.934;8.650;2023-04-06T02:06:56;3.27;;;1.60;;
17866;SDS011;9059;49.934;8.650;2023-04-06T02:07:59;5.83;;;1.60;;
17866;SDS011;9059;49.934;8.650;2023-04-06T02:09:01;4.30;;;1.53;;
17866;SDS011;9059;49.934;8.650;2023-04-06T02:10:10;4.57;;;1.80;;
17866;SDS011;9059;49.934;8.650;2023-04-06T02:11:12;2.97;;;1.43;;
17866;SDS011;9059;49.934;8.650;2023-04-06T02:12:15;2.37;;;1.47;;
17866;SDS011;9059;49.934;8.650;2023-04-06T02:13:17;2.57;;;1.37;;
17866;SDS011;9059;49.934;8.650;2023-04-06T02:14:20;3.07;;;1.63;;
17866;SDS011;9059;49.934;8.650;2023-04-06T02:15:22;3.13;;;1.53;;
17866;SDS011;9059;49.934;8.650;2023-04-06T02:16:24;4.33;;;1.93;;
17866;SDS011;9059;49.934;8.650;2023-04-06T02:17:27;3.53;;;1.70;;
17866;SDS011;9059;49.934;8.650;2023-04-06T02:18:30;4.13;;;1.90;;
17866;SDS011;9059;49.934;8.650;2023-04-06T02:19:33;8.60;;;2.03;;
17866;SDS011;9059;49.934;8.650;2023-04-06T02:20:35;3.70;;;1.57;;
17866;SDS011;9059;49.934;8.650;2023-04-06T02:21:38;5.27;;;1.90;;
17866;SDS011;9059;49.934;8.650;2023-04-06T02:22:40;3.63;;;1.87;;
17866;SDS011;9059;49.934;8.650;2023-04-06T02:23:42;3.63;;;1.70;;
17866;SDS011;9059;49.934;8.650;2023-04-06T02:24:44;3.63;;;1.70;;
17866;SDS011;9059;49.934;8.650;2023-04-06T02:25:49;4.73;;;1.43;;
17866;SDS011;9059;49.934;8.650;2023-04-06T02:26:51;5.43;;;2.17;;
17866;SDS011;9059;49.934;8.650;2023-04-06T02:27:54;3.33;;;1.80;;
17866;SDS011;9059;49.934;8.650;2023-04-06T02:28:56;4.30;;;1.50;;
17866;SDS011;9059;49.934;8.650;2023-04-06T02:29:59;5.17;;;1.90;;
17866;SDS011;9059;49.934;8.650;2023-04-06T02:31:01;2.87;;;1.60;;
17866;SDS011;9059;49.934;8.650;2023-04-06T02:32:04;3.20;;;1.63;;
17866;SDS011;9059;49.934;8.650;2023-04-06T02:33:06;3.67;;;1.70;;
17866;SDS011;9059;49.934;8.650;2023-04-06T02:34:09;1.87;;;1.27;;
17866;SDS011;9059;49.934;8.650;2023-04-06T02:35:13;6.00;;;1.83;;
17866;SDS011;9059;49.934;8.650;2023-04-06T02:36:16;3.50;;;1.60;;
17866;SDS011;9059;49.934;8.650;2023-04-06T02:37:17;7.07;;;2.00;;
17866;SDS011;9059;49.934;8.650;2023-04-06T02:38:20;5.47;;;1.83;;
17866;SDS011;9059;49.934;8.650;2023-04-06T02:39:22;3.93;;;1.70;;
17866;SDS011;9059;49.934;8.650;2023-04-06T02:40:25;2.83;;;1.60;;
17866;SDS011;9059;49.934;8.650;2023-04-06T02:41:28;3.57;;;1.70;;
17866;SDS011;9059;49.934;8.650;2023-04-06T02:42:31;3.73;;;1.80;;
17866;SDS011;9059;49.934;8.650;2023-04-06T02:43:34;3.13;;;1.87;;
17866;SDS011;9059;49.934;8.650;2023-04-06T02:44:36;2.87;;;1.60;;
17866;SDS011;9059;49.934;8.650;2023-04-06T02:45:38;3.03;;;1.60;;
17866;SDS011;9059;49.934;8.650;2023-04-06T02:46:42;4.63;;;1.70;;
17866;SDS011;9059;49.934;8.650;2023-04-06T02:47:44;4.43;;;1.77;;
17866;SDS011;9059;49.934;8.650;2023-04-06T02:48:47;3.57;;;1.63;;
17866;SDS011;9059;49.934;8.650;2023-04-06T02:49:49;3.13;;;1.77;;
17866;SDS011;9059;49.934;8.650;2023-04-06T02:50:51;4.50;;;1.90;;
17866;SDS011;9059;49.934;8.650;2023-04-06T02:51:53;3.00;;;1.70;;
17866;SDS011;9059;49.934;8.650;2023-04-06T02:52:56;2.73;;;1.57;;
17866;SDS011;9059;49.934;8.650;2023-04-06T02:53:58;8.23;;;2.00;;
17866;SDS011;9059;49.934;8.650;2023-04-06T02:55:01;4.23;;;1.60;;
17866;SDS011;9059;49.934;8.650;2023-04-06T02:56:03;4.67;;;2.03;;
17866;SDS011;9059;49.934;8.650;2023-04-06T02:57:08;3.63;;;1.70;;
17866;SDS011;9059;49.934;8.650;2023-04-06T02:58:10;3.13;;;1.60;;
17866;SDS011;9059;49.934;8.650;2023-04-06T02:59:13;5.03;;;1.57;;
17866;SDS011;9059;49.934;8.650;2023-04-06T03:00:15;4.30;;;1.70;;
17866;SDS011;9059;49.934;8.650;2023-04-06T03:01:18;4.13;;;1.80;;
17866;SDS011;9059;49.934;8.650;2023-04-06T03:02:20;7.37;;;1.97;;
17866;SDS011;9059;49.934;8.650;2023-04-06T03:03:23;3.57;;;1.60;;
17866;SDS011;9059;49.934;8.650;2023-04-06T03:04:25;3.67;;;1.73;;
17866;SDS011;9059;49.934;8.650;2023-04-06T03:05:27;3.33;;;1.63;;
17866;SDS011;9059;49.934;8.650;2023-04-06T03:06:29;3.13;;;1.60;;
17866;SDS011;9059;49.934;8.650;2023-04-06T03:07:32;4.77;;;2.07;;
17866;SDS011;9059;49.934;8.650;2023-04-06T03:08:34;7.00;;;1.67;;
17866;SDS011;9059;49.934;8.650;2023-04-06T03:09:37;8.07;;;1.93;;
17866;SDS011;9059;49.934;8.650;2023-04-06T03:10:39;4.10;;;2.10;;
17866;SDS011;9059;49.934;8.650;2023-04-06T03:11:42;5.83;;;1.50;;
17866;SDS011;9059;49.934;8.650;2023-04-06T03:12:45;3.50;;;1.73;;
17866;SDS011;9059;49.934;8.650;2023-04-06T03:13:48;3.80;;;1.70;;
17866;SDS011;9059;49.934;8.650;2023-04-06T03:14:50;3.33;;;1.63;;
17866;SDS011;9059;49.934;8.650;2023-04-06T03:15:53;9.83;;;1.80;;
17866;SDS011;9059;49.934;8.650;2023-04-06T03:16:55;4.20;;;2.07;;
17866;SDS011;9059;49.934;8.650;2023-04-06T03:17:58;4.63;;;2.40;;
17866;SDS011;9059;49.934;8.650;2023-04-06T03:19:01;6.53;;;3.13;;
17866;SDS011;9059;49.934;8.650;2023-04-06T03:20:04;6.97;;;2.37;;
17866;SDS011;9059;49.934;8.650;2023-04-06T03:21:06;7.97;;;2.00;;
17866;SDS011;9059;49.934;8.650;2023-04-06T03:22:09;7.23;;;2.23;;
17866;SDS011;9059;49.934;8.650;2023-04-06T03:23:11;4.33;;;1.87;;
17866;SDS011;9059;49.934;8.650;2023-04-06T03:24:14;4.53;;;2.10;;
17866;SDS011;9059;49.934;8.650;2023-04-06T03:25:16;6.17;;;2.40;;
17866;SDS011;9059;49.934;8.650;2023-04-06T03:26:19;6.57;;;1.90;;
17866;SDS011;9059;49.934;8.650;2023-04-06T03:27:20;6.93;;;2.20;;
17866;SDS011;9059;49.934;8.650;2023-04-06T03:28:25;4.73;;;2.37;;
17866;SDS011;9059;49.934;8.650;2023-04-06T03:29:26;3.47;;;1.80;;
17866;SDS011;9059;49.934;8.650;2023-04-06T03:30:29;6.40;;;2.00;;
17866;SDS011;9059;49.934;8.650;2023-04-06T03:31:31;6.33;;;2.10;;
17866;SDS011;9059;49.934;8.650;2023-04-06T03:32:34;4.27;;;2.10;;
17866;SDS011;9059;49.934;8.650;2023-04-06T03:33:36;3.63;;;1.97;;
17866;SDS011;9059;49.934;8.650;2023-04-06T03:34:39;4.03;;;1.80;;
17866;SDS011;9059;49.934;8.650;2023-04-06T03:35:41;3.30;;;1.50;;
17866;SDS011;9059;49.934;8.650;2023-04-06T03:36:44;4.20;;;1.90;;
17866;SDS011;9059;49.934;8.650;2023-04-06T03:37:54;3.63;;;1.80;;
17866;SDS011;9059;49.934;8.650;2023-04-06T03:38:56;4.33;;;1.83;;
17866;SDS011;9059;49.934;8.650;2023-04-06T03:39:59;5.27;;;1.90;;
17866;SDS011;9059;49.934;8.650;2023-04-06T03:41:01;3.90;;;1.83;;
17866;SDS011;9059;49.934;8.650;2023-04-06T03:42:04;4.90;;;1.70;;
17866;SDS011;9059;49.934;8.650;2023-04-06T03:43:06;3.10;;;1.83;;
17866;SDS011;9059;49.934;8.650;2023-04-06T03:44:10;2.80;;;1.60;;
17866;SDS011;9059;49.934;8.650;2023-04-06T03:45:12;5.00;;;1.90;;
17866;SDS011;9059;49.934;8.650;2023-04-06T03:46:15;2.87;;;1.77;;
17866;SDS011;9059;49.934;8.650;2023-04-06T03:47:17;5.13;;;2.10;;
17866;SDS011;9059;49.934;8.650;2023-04-06T03:48:20;3.00;;;1.60;;
17866;SDS011;9059;49.934;8.650;2023-04-06T03:49:22;4.30;;;1.90;;
17866;SDS011;9059;49.934;8.650;2023-04-06T03:50:25;2.20;;;1.40;;
17866;SDS011;9059;49.934;8.650;2023-04-06T03:51:27;3.53;;;1.50;;
17866;SDS011;9059;49.934;8.650;2023-04-06T03:52:30;4.27;;;1.93;;
17866;SDS011;9059;49.934;8.650;2023-04-06T03:53:32;5.80;;;2.10;;
17866;SDS011;9059;49.934;8.650;2023-04-06T03:54:35;2.50;;;1.60;;
17866;SDS011;9059;49.934;8.650;2023-04-06T03:55:37;2.67;;;1.70;;
17866;SDS011;9059;49.934;8.650;2023-04-06T03:56:41;2.93;;;1.30;;
17866;SDS011;9059;49.934;8.650;2023-04-06T03:57:42;4.00;;;1.97;;
17866;SDS011;9059;49.934;8.650;2023-04-06T03:58:45;2.63;;;1.77;;
17866;SDS011;9059;49.934;8.650;2023-04-06T03:59:52;4.30;;;1.70;;
17866;SDS011;9059;49.934;8.650;2023-04-06T04:00:54;3.97;;;1.70;;
17866;SDS011;9059;49.934;8.650;2023-04-06T04:01:56;6.67;;;2.13;;
17866;SDS011;9059;49.934;8.650;2023-04-06T04:02:59;4.63;;;1.93;;
17866;SDS011;9059;49.934;8.650;2023-04-06T04:04:03;3.57;;;1.87;;
17866;SDS011;9059;49.934;8.650;2023-04-06T04:05:06;5.10;;;1.70;;
17866;SDS011;9059;49.934;8.650;2023-04-06T04:06:08;6.33;;;1.90;;
17866;SDS011;9059;49.934;8.650;2023-04-06T04:07:11;7.30;;;2.23;;
17866;SDS011;9059;49.934;8.650;2023-04-06T04:08:13;6.23;;;2.17;;
17866;SDS011;9059;49.934;8.650;2023-04-06T04:09:16;4.07;;;1.97;;
17866;SDS011;9059;49.934;8.650;2023-04-06T04:10:17;8.90;;;2.30;;
17866;SDS011;9059;49.934;8.650;2023-04-06T04:11:20;8.40;;;2.07;;
17866;SDS011;9059;49.934;8.650;2023-04-06T04:12:22;5.10;;;1.90;;
17866;SDS011;9059;49.934;8.650;2023-04-06T04:13:25;3.70;;;1.70;;
17866;SDS011;9059;49.934;8.650;2023-04-06T04:14:27;5.03;;;2.17;;
17866;SDS011;9059;49.934;8.650;2023-04-06T04:15:31;6.07;;;2.10;;
17866;SDS011;9059;49.934;8.650;2023-04-06T04:16:33;3.10;;;1.60;;
17866;SDS011;9059;49.934;8.650;2023-04-06T04:17:36;4.17;;;1.77;;
17866;SDS011;9059;49.934;8.650;2023-04-06T04:18:38;3.40;;;1.73;;
17866;SDS011;9059;49.934;8.650;2023-04-06T04:19:41;12.10;;;2.03;;
17866;SDS011;9059;49.934;8.650;2023-04-06T04:20:43;3.50;;;1.80;;
17866;SDS011;9059;49.934;8.650;2023-04-06T04:21:46;4.80;;;2.10;;
17866;SDS011;9059;49.934;8.650;2023-04-06T04:22:49;9.07;;;2.23;;
17866;SDS011;9059;49.934;8.650;2023-04-06T04:23:51;4.23;;;2.07;;
17866;SDS011;9059;49.934;8.650;2023-04-06T04:24:54;6.90;;;1.63;;
17866;SDS011;9059;49.934;8.650;2023-04-06T04:25:57;3.63;;;1.80;;
17866;SDS011;9059;49.934;8.650;2023-04-06T04:27:00;3.73;;;2.00;;
17866;SDS011;9059;49.934;8.650;2023-04-06T04:28:02;3.27;;;1.77;;
17866;SDS011;9059;49.934;8.650;2023-04-06T04:29:05;4.00;;;1.93;;
17866;SDS011;9059;49.934;8.650;2023-04-06T04:30:08;4.53;;;1.83;;
17866;SDS011;9059;49.934;8.650;2023-04-06T04:31:12;2.93;;;1.70;;
17866;SDS011;9059;49.934;8.650;2023-04-06T04:32:14;2.90;;;1.80;;
17866;SDS011;9059;49.934;8.650;2023-04-06T04:33:17;3.73;;;1.73;;
17866;SDS011;9059;49.934;8.650;2023-04-06T04:34:19;10.33;;;2.13;;
17866;SDS011;9059;49.934;8.650;2023-04-06T04:35:26;5.63;;;1.80;;
17866;SDS011;9059;49.934;8.650;2023-04-06T04:36:28;2.87;;;1.77;;
17866;SDS011;9059;49.934;8.650;2023-04-06T04:37:31;5.83;;;2.10;;
17866;SDS011;9059;49.934;8.650;2023-04-06T04:38:32;2.73;;;1.70;;
17866;SDS011;9059;49.934;8.650;2023-04-06T04:39:35;3.00;;;2.00;;
17866;SDS011;9059;49.934;8.650;2023-04-06T04:40:37;6.17;;;2.77;;
17866;SDS011;9059;49.934;8.650;2023-04-06T04:41:40;7.53;;;2.90;;
17866;SDS011;9059;49.934;8.650;2023-04-06T04:42:43;6.00;;;2.33;;
17866;SDS011;9059;49.934;8.650;2023-04-06T04:43:46;10.47;;;2.40;;
17866;SDS011;9059;49.934;8.650;2023-04-06T04:44:48;6.20;;;2.27;;
17866;SDS011;9059;49.934;8.650;2023-04-06T04:45:51;4.97;;;2.20;;
17866;SDS011;9059;49.934;8.650;2023-04-06T04:46:55;5.57;;;2.00;;
17866;SDS011;9059;49.934;8.650;2023-04-06T04:47:59;5.63;;;2.07;;
17866;SDS011;9059;49.934;8.650;2023-04-06T04:49:01;4.53;;;2.27;;
17866;SDS011;9059;49.934;8.650;2023-04-06T04:50:04;3.87;;;1.83;;
17866;SDS011;9059;49.934;8.650;2023-04-06T04:51:07;3.43;;;1.70;;
17866;SDS011;9059;49.934;8.650;2023-04-06T04:52:10;4.07;;;2.20;;
17866;SDS011;9059;49.934;8.650;2023-04-06T04:53:13;6.27;;;2.20;;
17866;SDS011;9059;49.934;8.650;2023-04-06T04:54:16;7.63;;;2.00;;
17866;SDS011;9059;49.934;8.650;2023-04-06T04:55:18;6.27;;;2.03;;
17866;SDS011;9059;49.934;8.650;2023-04-06T04:56:23;4.50;;;2.13;;
17866;SDS011;9059;49.934;8.650;2023-04-06T04:57:27;5.53;;;2.43;;
17866;SDS011;9059;49.934;8.650;2023-04-06T04:58:30;3.43;;;2.00;;
17866;SDS011;9059;49.934;8.650;2023-04-06T04:59:32;9.07;;;1.90;;
17866;SDS011;9059;49.934;8.650;2023-04-06T05:00:35;10.73;;;2.33;;
17866;SDS011;9059;49.934;8.650;2023-04-06T05:01:37;9.97;;;2.03;;
17866;SDS011;9059;49.934;8.650;2023-04-06T05:02:56;4.57;;;2.30;;
17866;SDS011;9059;49.934;8.650;2023-04-06T05:04:00;8.47;;;1.90;;
17866;SDS011;9059;49.934;8.650;2023-04-06T05:05:02;5.93;;;2.00;;
17866;SDS011;9059;49.934;8.650;2023-04-06T05:06:11;6.50;;;2.07;;
17866;SDS011;9059;49.934;8.650;2023-04-06T05:07:15;8.93;;;2.20;;
17866;SDS011;9059;49.934;8.650;2023-04-06T05:08:24;6.70;;;2.20;;
17866;SDS011;9059;49.934;8.650;2023-04-06T05:09:31;9.10;;;2.00;;
17866;SDS011;9059;49.934;8.650;2023-04-06T05:10:37;10.00;;;2.57;;
17866;SDS011;9059;49.934;8.650;2023-04-06T05:11:49;2.90;;;1.70;;
17866;SDS011;9059;49.934;8.650;2023-04-06T05:12:52;3.30;;;1.63;;
17866;SDS011;9059;49.934;8.650;2023-04-06T05:14:01;4.83;;;1.73;;
17866;SDS011;9059;49.934;8.650;2023-04-06T05:17:05;3.63;;;1.60;;
17866;SDS011;9059;49.934;8.650;2023-04-06T05:18:12;3.57;;;1.90;;
17866;SDS011;9059;49.934;8.650;2023-04-06T05:19:16;8.07;;;1.90;;
17866;SDS011;9059;49.934;8.650;2023-04-06T05:20:21;4.47;;;1.80;;
17866;SDS011;9059;49.934;8.650;2023-04-06T05:21:29;4.63;;;1.93;;
17866;SDS011;9059;49.934;8.650;2023-04-06T05:22:37;5.03;;;1.87;;
17866;SDS011;9059;49.934;8.650;2023-04-06T05:23:42;3.97;;;1.97;;
17866;SDS011;9059;49.934;8.650;2023-04-06T05:24:47;4.67;;;2.03;;
17866;SDS011;9059;49.934;8.650;2023-04-06T05:25:53;8.97;;;2.53;;
17866;SDS011;9059;49.934;8.650;2023-04-06T05:27:01;3.97;;;2.00;;
17866;SDS011;9059;49.934;8.650;2023-04-06T05:28:10;6.20;;;1.80;;
17866;SDS011;9059;49.934;8.650;2023-04-06T05:29:15;5.30;;;1.90;;
17866;SDS011;9059;49.934;8.650;2023-04-06T05:30:47;6.50;;;1.90;;
17866;SDS011;9059;49.934;8.650;2023-04-06T05:31:55;6.43;;;2.60;;
17866;SDS011;9059;49.934;8.650;2023-04-06T05:33:02;7.13;;;2.03;;
17866;SDS011;9059;49.934;8.650;2023-04-06T05:34:11;13.57;;;1.77;;
17866;SDS011;9059;49.934;8.650;2023-04-06T05:35:14;6.13;;;2.00;;
17866;SDS011;9059;49.934;8.650;2023-04-06T05:36:21;4.60;;;2.17;;
17866;SDS011;9059;49.934;8.650;2023-04-06T05:37:38;3.63;;;2.10;;
17866;SDS011;9059;49.934;8.650;2023-04-06T05:38:43;15.50;;;2.40;;
17866;SDS011;9059;49.934;8.650;2023-04-06T05:39:52;3.63;;;1.70;;
17866;SDS011;9059;49.934;8.650;2023-04-06T05:40:57;4.83;;;2.17;;
17866;SDS011;9059;49.934;8.650;2023-04-06T05:42:05;3.40;;;2.13;;
17866;SDS011;9059;49.934;8.650;2023-04-06T05:43:12;5.37;;;2.17;;
17866;SDS011;9059;49.934;8.650;2023-04-06T05:44:15;9.33;;;4.57;;
17866;SDS011;9059;49.934;8.650;2023-04-06T05:45:17;9.60;;;2.83;;
17866;SDS011;9059;49.934;8.650;2023-04-06T05:46:23;14.87;;;2.30;;
17866;SDS011;9059;49.934;8.650;2023-04-06T05:47:34;7.63;;;2.57;;
17866;SDS011;9059;49.934;8.650;2023-04-06T05:48:47;6.40;;;2.23;;
17866;SDS011;9059;49.934;8.650;2023-04-06T05:50:03;4.23;;;1.97;;
17866;SDS011;9059;49.934;8.650;2023-04-06T05:51:08;9.50;;;2.83;;
17866;SDS011;9059;49.934;8.650;2023-04-06T05:52:12;9.03;;;3.23;;
17866;SDS011;9059;49.934;8.650;2023-04-06T05:53:17;28.53;;;4.27;;
17866;SDS011;9059;49.934;8.650;2023-04-06T05:54:23;7.77;;;3.50;;
17866;SDS011;9059;49.934;8.650;2023-04-06T05:55:33;9.77;;;3.70;;
17866;SDS011;9059;49.934;8.650;2023-04-06T05:56:38;11.83;;;3.10;;
17866;SDS011;9059;49.934;8.650;2023-04-06T05:57:45;15.23;;;3.33;;
17866;SDS011;9059;49.934;8.650;2023-04-06T05:58:58;6.33;;;2.80;;
17866;SDS011;9059;49.934;8.650;2023-04-06T06:00:06;6.37;;;2.70;;
17866;SDS011;9059;49.934;8.650;2023-04-06T06:01:14;7.30;;;2.90;;
17866;SDS011;9059;49.934;8.650;2023-04-06T06:02:19;9.87;;;3.27;;
17866;SDS011;9059;49.934;8.650;2023-04-06T06:03:26;7.60;;;2.70;;
17866;SDS011;9059;49.934;8.650;2023-04-06T06:04:30;6.57;;;2.57;;
17866;SDS011;9059;49.934;8.650;2023-04-06T06:05:36;8.77;;;2.20;;
17866;SDS011;9059;49.934;8.650;2023-04-06T06:06:39;6.00;;;2.40;;
17866;SDS011;9059;49.934;8.650;2023-04-06T06:07:46;8.40;;;2.80;;
17866;SDS011;9059;49.934;8.650;2023-04-06T06:08:51;6.10;;;2.77;;
17866;SDS011;9059;49.934;8.650;2023-04-06T06:09:58;4.47;;;2.50;;
17866;SDS011;9059;49.934;8.650;2023-04-06T06:11:07;9.17;;;2.50;;
17866;SDS011;9059;49.934;8.650;2023-04-06T06:12:11;7.30;;;2.97;;
17866;SDS011;9059;49.934;8.650;2023-04-06T06:13:20;5.07;;;2.80;;
17866;SDS011;9059;49.934;8.650;2023-04-06T06:14:23;9.00;;;3.27;;
17866;SDS011;9059;49.934;8.650;2023-04-06T06:15:30;5.60;;;2.97;;
17866;SDS011;9059;49.934;8.650;2023-04-06T06:16:38;15.33;;;3.60;;
17866;SDS011;9059;49.934;8.650;2023-04-06T06:17:45;9.13;;;3.57;;
17866;SDS011;9059;49.934;8.650;2023-04-06T06:18:50;11.73;;;3.80;;
17866;SDS011;9059;49.934;8.650;2023-04-06T06:20:01;11.67;;;3.63;;
17866;SDS011;9059;49.934;8.650;2023-04-06T06:21:09;8.83;;;3.10;;
17866;SDS011;9059;49.934;8.650;2023-04-06T06:22:22;14.33;;;3.07;;
17866;SDS011;9059;49.934;8.650;2023-04-06T06:23:27;13.07;;;2.60;;
17866;SDS011;9059;49.934;8.650;2023-04-06T06:24:32;7.00;;;2.50;;
17866;SDS011;9059;49.934;8.650;2023-04-06T06:25:44;11.50;;;2.83;;
17866;SDS011;9059;49.934;8.650;2023-04-06T06:26:51;5.27;;;2.50;;
17866;SDS011;9059;49.934;8.650;2023-04-06T06:27:54;6.70;;;2.50;;
17866;SDS011;9059;49.934;8.650;2023-04-06T06:29:00;12.93;;;2.77;;
17866;SDS011;9059;49.934;8.650;2023-04-06T06:30:11;3.73;;;2.10;;
17866;SDS011;9059;49.934;8.650;2023-04-06T06:31:17;17.43;;;3.33;;